AirNav   Pilot Hours Calculator
 
 517 users online  

OK54 May Ranch Airport
Alva, Oklahoma, USA

GOING TO ALVA?


FAA INFORMATION EFFECTIVE 08 SEPTEMBER 2022

Location

FAA Identifier: OK54
Lat/Long: 36-59-48.1070N 099-00-17.3620W
36-59.801783N 099-00.289367W
36.9966964,-99.0048228
(estimated)
Elevation: 1833 ft. / 559 m (estimated)
Variation: 08E (1985)
From city: 20 miles NW of ALVA, OK
Time zone: UTC -5 (UTC -6 during Standard Time)
Zip code: 73717

Airport Operations

Airport use: Private use. Permission required prior to landing
Activation date: 12/1958
Control tower: no
ARTCC: KANSAS CITY CENTER
FSS: MC ALESTER FLIGHT SERVICE STATION
Attendance: UNATNDD
Wind indicator: yes
Segmented circle: no

Airport Services

Parking: hangars and tiedowns
Airframe service: NONE
Powerplant service: NONE

Runway Information

Runway 17/35

Dimensions: 2000 x 60 ft. / 610 x 18 m
Surface: turf, in fair condition
RUNWAY 17  RUNWAY 35
Traffic pattern: leftleft
Obstructions: 15 ft. road35 ft. trees, 130 ft. from runway, 3:1 slope to clear

Runway 8/26

Dimensions: 1500 x 75 ft. / 457 x 23 m
Surface: turf, in good condition
RUNWAY 8  RUNWAY 26
Traffic pattern: leftleft
Obstructions: none10 ft. road

Airport Ownership and Management from official FAA records

Ownership: Privately-owned
Owner: LEON E. MAY
25638 PAYNE RD
ALVA, OK 73717
Phone 580-829-2968
Manager: LEON E. MAY
25638 PAYNE RD
ALVA, OK 73717
Phone 580-829-2968

Airport Operational Statistics

Aircraft operations: 100/year *
100% transient general aviation
* for 12-month period ending 07 April 1989

Additional Remarks

FOR CD CTC KANSAS CITY ARTCC AT 913-254-8508.

Instrument Procedures

There are no published instrument procedures at OK54.

Some nearby airports with instrument procedures:

3K8 - Comanche County Airport (21 nm NW)
KAVK - Alva Regional Airport (21 nm SE)
KBFK - Buffalo Municipal Airport (31 nm W)
KMDF - Mooreland Municipal Airport (32 nm S)
KWWR - West Woodward Airport (42 nm SW)
 
Loc | Ops | Rwys | IFR | FBO | Links
Com | Nav | Svcs | Stats | Notes

AirBoss

 
Area around OK54 (May Ranch Airport)
 
Road maps at: MapQuest Bing Google
 
Aerial photo
No photo
 
Sectional chart

 
Airport distance calculator
Flying to May Ranch Airport? Find the distance to fly.

From to OK54

Sunrise and sunset
Times for 03-Oct-2022
 Local
(UTC-5)
 Zulu
(UTC)
Morning civil twilight07:0812:08
Sunrise07:3412:34
Sunset19:1600:16
Evening civil twilight19:4200:42

Current date and time
Zulu (UTC)  03-Oct-2022 05:46:33
Local (UTC-5)  03-Oct-2022 00:46:33
 
METAR
KAVK 
21nm SE 
030535Z AUTO 15008KT 10SM SCT044 BKN050 16/01 A3020 RMK AO2 PWINO
KP28 
28nm NE 
030456Z AUTO 12005KT 18/01 A3020 RMK AO1 SLP216 T01780011 $
KWWR 
34nm SW 
030530Z AUTO 17008KT 10SM CLR 15/01 A3023 RMK AO2
TAF
KWWR 
34nm SW 
021720Z 0218/0318 18008KT P6SM SKC FM031600 19012G19KT P6SM SKC
NOTAMs
Click for the latest NOTAMs
NOTAMs are issued by the DoD/FAA and will open in a separate window not controlled by AirNav.

 

 
 

Would you like to see your business listed on this page?

 If your business provides an interesting product or service to pilots, flight crews, aircraft, or users of the May Ranch Airport, you should consider listing it here.  To start the listing process, click on the button below
 
Add a business
 

Other Pages about May Ranch Airport

Update a link
 
Copyright © AirNav, LLC. All rights reserved. Privacy Policy  Contact